CZFM/ZFM METAR and TAF weather

Enter ICAO airport designator
Station Type Date Time Source
CZFM METAR 2018/12/10 17:00 UTC NOAA

CZFM 101700Z 33004KT 5SM -SN SCT022 BKN048 M19/M22 A2942 RMK SC3SC3 SLP968


Station Type Date Time Source
CZFM Decoded METAR 2018/12/10 17:00 UTC NOAA

Fort Mcpherson Airport, Canada (CZFM) 67-24N 134-51W
Dec 10, 2018 - 12:00 PM EST / 2018.12.10 1700 UTC
Wind: from the NNW (330 degrees) at 5 MPH (4 KT):0
Visibility: 5 mile(s):0
Sky conditions: mostly cloudy
Weather: light snow
Temperature: -2 F (-19 C)
Windchill: -13 F (-25 C):2
Dew Point: -7 F (-22 C)
Relative Humidity: 77%
Pressure (altimeter): 29.42 in. Hg (996 hPa)
ob: CZFM 101700Z 33004KT 5SM -SN SCT022 BKN048 M19/M22 A2942 RMK SC3SC3 SLP968
cycle: 17

Station Type Date Time Source
CZFM TAF 2018/12/10 16:00 UTC NOAA

TAF CZFM 101538Z 1016/1024 34007KT P6SM OVC040
TEMPO 1016/1018 5SM -SN OVC020
FM101800 35005KT P6SM BKN040
RMK NXT FCST BY 101900Z


Example: see airport list